Time;durP1;ratioP1;P1;durP2;ratioP2;P2;SDS_P1;SDS_P2;PMS_P1;PMS_P2;Temp;Humidity;BMP_temperature;BMP_pressure;BME280_temperature;BME280_humidity;BME280_pressure;Samples;Min_cycle;Max_cycle;Signal;HPM_P1;HPM_P2
2022/03/23 00:01:19;;;;;;;18.47;11.03;;;1.50;99.90;;;;;;5058598;28;20187;-79
2022/03/23 00:03:46;;;;;;;18.47;11.53;;;2.20;99.90;;;;;;5059420;28;20193;-79
2022/03/23 00:06:13;;;;;;;20.20;11.97;;;2.20;99.90;;;;;;5059014;28;20664;-79
2022/03/23 00:08:39;;;;;;;23.10;11.47;;;2.20;99.90;;;;;;5059404;28;20226;-80
2022/03/23 00:11:05;;;;;;;15.57;10.77;;;;;;;;;;5058982;28;20183;-80
2022/03/23 00:13:31;;;;;;;17.47;10.87;;;2.10;99.90;;;;;;5058977;28;20189;-79
2022/03/23 00:15:58;;;;;;;17.73;11.33;;;;;;;;;;5059356;28;20284;-79
2022/03/23 00:18:24;;;;;;;21.30;11.03;;;2.10;99.90;;;;;;5057798;28;20214;-79
2022/03/23 00:20:50;;;;;;;20.40;12.27;;;2.20;99.90;;;;;;5059087;28;20180;-79
2022/03/23 00:23:15;;;;;;;17.90;11.97;;;2.80;99.90;;;;;;5057116;28;20234;-79
2022/03/23 00:25:41;;;;;;;18.33;11.47;;;;;;;;;;5058638;28;20194;-80
2022/03/23 00:28:07;;;;;;;17.70;10.73;;;1.90;99.90;;;;;;5059513;28;20244;-80
2022/03/23 00:30:34;;;;;;;16.73;10.70;;;2.00;99.90;;;;;;5059126;28;20247;-80
2022/03/23 00:33:04;;;;;;;17.43;10.60;;;1.80;99.90;;;;;;5060181;28;20642;-80
2022/03/23 00:35:31;;;;;;;18.60;11.30;;;1.60;99.90;;;;;;5057508;28;20190;-80
2022/03/23 00:38:00;;;;;;;20.00;11.27;;;1.60;99.90;;;;;;5057365;28;20247;-81
2022/03/23 00:40:28;;;;;;;18.67;10.73;;;2.10;99.90;;;;;;5059817;28;20172;-80
2022/03/23 00:42:59;;;;;;;20.10;11.40;;;1.60;99.90;;;;;;5057180;28;20207;-80
2022/03/23 00:45:25;;;;;;;17.07;11.53;;;1.60;99.90;;;;;;5056891;28;20632;-80
2022/03/23 00:47:51;;;;;;;18.10;10.37;;;;;;;;;;5058702;28;20182;-81
2022/03/23 00:50:17;;;;;;;17.03;11.13;;;1.60;99.90;;;;;;5058285;28;20279;-80
2022/03/23 00:52:46;;;;;;;18.47;10.73;;;;;;;;;;5062078;28;20218;-82
2022/03/23 00:55:13;;;;;;;17.87;8.40;;;;;;;;;;5063155;28;20174;-81
2022/03/23 00:57:39;;;;;;;17.27;9.93;;;;;;;;;;5061742;28;20203;-81
2022/03/23 01:00:12;;;;;;;18.33;10.37;;;1.70;99.90;;;;;;5062331;28;20209;-81
2022/03/23 01:02:42;;;;;;;22.83;9.73;;;1.80;99.90;;;;;;5061932;28;20178;-79
2022/03/23 01:05:09;;;;;;;19.00;9.57;;;1.70;99.90;;;;;;5062803;28;20262;-80
2022/03/23 01:07:39;;;;;;;15.70;9.00;;;1.80;99.90;;;;;;5060706;28;20219;-79
2022/03/23 01:10:06;;;;;;;19.20;10.23;;;1.70;99.90;;;;;;5061977;28;20186;-80
2022/03/23 01:12:32;;;;;;;18.97;9.07;;;;;;;;;;5061667;28;20173;-82
2022/03/23 01:14:59;;;;;;;15.73;7.83;;;;;;;;;;5060030;28;20181;-79
2022/03/23 01:17:25;;;;;;;16.80;9.47;;;1.60;99.90;;;;;;5059624;28;20195;-79
2022/03/23 01:19:51;;;;;;;13.93;9.33;;;;;;;;;;5059746;28;20207;-80
2022/03/23 01:22:17;;;;;;;15.93;9.20;;;1.70;99.90;;;;;;5060493;28;20191;-79
2022/03/23 01:24:44;;;;;;;13.63;8.80;;;1.60;99.90;;;;;;5059679;28;20180;-79
2022/03/23 01:27:10;;;;;;;16.97;10.23;;;;;;;;;;5060296;28;20563;-80
2022/03/23 01:29:36;;;;;;;21.13;9.87;;;1.60;99.90;;;;;;5061491;28;20183;-81
2022/03/23 01:32:02;;;;;;;15.47;9.47;;;;;;;;;;5062448;28;20181;-81
2022/03/23 01:34:28;;;;;;;19.30;8.67;;;;;;;;;;5061650;28;20183;-80
2022/03/23 01:36:54;;;;;;;14.93;9.20;;;;;;;;;;5062483;28;20234;-80
2022/03/23 01:39:20;;;;;;;14.80;9.40;;;;;;;;;;5062687;28;20215;-80
2022/03/23 01:41:46;;;;;;;17.23;10.00;;;1.30;99.90;;;;;;5062180;28;20402;-80
2022/03/23 01:44:19;;;;;;;13.80;8.90;;;1.30;99.90;;;;;;5061580;28;20184;-78
2022/03/23 01:47:08;;;;;;;15.83;9.37;;;1.10;99.90;;;;;;5061514;28;20185;-81
2022/03/23 01:49:42;;;;;;;14.73;9.27;;;1.10;99.90;;;;;;5060356;28;20261;-81
2022/03/23 01:52:10;;;;;;;15.57;9.23;;;1.10;99.90;;;;;;5061417;28;20172;-81
2022/03/23 01:54:38;;;;;;;14.67;9.30;;;1.10;99.90;;;;;;5060113;28;20183;-81
2022/03/23 01:57:05;;;;;;;13.43;8.63;;;1.00;99.90;;;;;;5061553;28;20198;-80
2022/03/23 01:59:32;;;;;;;14.50;8.77;;;0.90;99.90;;;;;;5060456;28;20206;-81
2022/03/23 02:01:58;;;;;;;15.90;10.07;;;0.80;99.90;;;;;;5061999;28;20249;-80
2022/03/23 02:04:24;;;;;;;16.53;8.23;;;;;;;;;;5061281;28;20628;-80
2022/03/23 02:06:50;;;;;;;15.53;8.73;;;0.70;99.90;;;;;;5060252;28;20212;-80
2022/03/23 02:09:17;;;;;;;12.67;8.57;;;0.90;99.90;;;;;;5059455;28;20202;-80
2022/03/23 02:11:43;;;;;;;15.33;10.00;;;;;;;;;;5059951;28;20207;-81
2022/03/23 02:14:10;;;;;;;14.40;8.27;;;;;;;;;;5059703;28;20428;-81
2022/03/23 02:16:47;;;;;;;13.07;9.03;;;0.70;99.90;;;;;;5060239;28;20964;-81
2022/03/23 02:19:13;;;;;;;14.33;9.27;;;;;;;;;;5059845;28;20463;-80
2022/03/23 02:21:43;;;;;;;16.10;9.43;;;0.80;99.90;;;;;;5059434;28;20408;-80
2022/03/23 02:24:09;;;;;;;14.77;8.97;;;;;;;;;;5060600;28;20917;-81
2022/03/23 02:26:37;;;;;;;13.20;9.00;;;0.90;99.90;;;;;;5061270;28;20424;-80
2022/03/23 02:29:04;;;;;;;16.50;9.87;;;0.90;99.90;;;;;;5061958;28;20178;-81
2022/03/23 02:31:31;;;;;;;15.53;9.93;;;;;;;;;;5060420;28;20428;-81
2022/03/23 02:33:57;;;;;;;17.70;9.90;;;;;;;;;;5061706;28;20416;-81
2022/03/23 02:36:23;;;;;;;16.63;9.70;;;;;;;;;;5062006;28;20481;-82
2022/03/23 02:38:49;;;;;;;15.57;9.53;;;;;;;;;;5060039;28;20531;-81
2022/03/23 02:41:15;;;;;;;16.93;10.53;;;;;;;;;;5061270;28;20400;-81
2022/03/23 02:43:41;;;;;;;17.37;9.70;;;1.00;99.90;;;;;;5061479;28;20411;-81
2022/03/23 02:46:14;;;;;;;13.17;7.47;;;1.00;99.90;;;;;;5062635;28;20435;-82
2022/03/23 02:48:40;;;;;;;15.27;7.27;;;;;;;;;;5061448;28;20432;-80
2022/03/23 02:51:06;;;;;;;16.43;8.77;;;;;;;;;;5067090;28;20404;-81
2022/03/23 03:02:19;;;;;;;18.80;9.67;;;1.10;99.90;;;;;;5078460;28;20431;-80
2022/03/23 03:04:45;;;;;;;13.47;8.93;;;1.10;99.90;;;;;;5058300;28;20416;-80
2022/03/23 03:07:11;;;;;;;16.50;9.40;;;1.00;99.90;;;;;;5059181;28;20450;-80
2022/03/23 03:09:37;;;;;;;15.40;9.80;;;1.80;99.90;;;;;;5064243;28;20218;-80
2022/03/23 03:12:04;;;;;;;16.07;10.17;;;1.00;99.90;;;;;;5058432;28;20639;-80
2022/03/23 03:14:31;;;;;;;16.60;10.43;;;1.00;99.90;;;;;;5055713;28;20185;-80
2022/03/23 03:16:57;;;;;;;14.03;9.63;;;;;;;;;;5056026;28;20440;-81
2022/03/23 03:19:23;;;;;;;16.80;9.20;;;;;;;;;;5060039;28;20455;-81
2022/03/23 03:21:49;;;;;;;17.23;10.33;;;;;;;;;;5062394;28;20404;-81
2022/03/23 03:24:15;;;;;;;14.23;9.37;;;;;;;;;;5058077;28;20423;-81
2022/03/23 03:26:41;;;;;;;14.83;8.53;;;;;;;;;;5057044;28;20528;-81
2022/03/23 03:29:07;;;;;;;13.17;8.50;;;;;;;;;;5058483;28;20483;-81
2022/03/23 03:31:33;;;;;;;14.43;9.70;;;;;;;;;;5057815;28;20415;-81
2022/03/23 03:33:59;;;;;;;13.77;8.90;;;;;;;;;;5057331;28;20416;-81
2022/03/23 03:36:26;;;;;;;16.90;9.80;;;;;;;;;;5058757;28;20945;-81
2022/03/23 03:38:52;;;;;;;21.20;9.57;;;;;;;;;;5058715;28;20197;-81
2022/03/23 03:41:18;;;;;;;16.60;8.97;;;;;;;;;;5057086;28;20419;-81
2022/03/23 03:43:44;;;;;;;22.13;10.17;;;;;;;;;;5056948;28;20404;-81
2022/03/23 03:46:11;;;;;;;15.93;9.30;;;;;;;;;;5058604;28;20416;-81
2022/03/23 03:48:37;;;;;;;21.60;10.20;;;;;;;;;;5057002;28;20416;-81
2022/03/23 03:51:06;;;;;;;14.47;9.77;;;0.70;99.90;;;;;;5057176;28;20416;-80
2022/03/23 03:53:32;;;;;;;18.17;10.10;;;;;;;;;;5058385;28;20814;-81
2022/03/23 03:55:58;;;;;;;17.90;8.80;;;;;;;;;;5057561;28;20479;-81
2022/03/23 03:58:24;;;;;;;14.60;9.50;;;;;;;;;;5057428;28;20455;-80
2022/03/23 04:00:50;;;;;;;15.43;8.87;;;0.60;99.90;;;;;;5058833;28;20439;-80
2022/03/23 04:03:16;;;;;;;13.37;9.27;;;0.40;99.90;;;;;;5056492;28;20413;-80
2022/03/23 04:05:42;;;;;;;13.77;9.47;;;;;;;;;;5058617;28;20774;-80
2022/03/23 04:08:08;;;;;;;14.37;9.87;;;;;;;;;;5057026;28;20588;-80
2022/03/23 04:10:35;;;;;;;18.50;8.97;;;0.40;99.90;;;;;;5058425;28;20466;-80
2022/03/23 04:13:02;;;;;;;12.53;9.00;;;;;;;;;;5056966;28;20419;-80
2022/03/23 04:15:28;;;;;;;13.27;9.17;;;;;;;;;;5058746;28;20415;-82
2022/03/23 04:17:54;;;;;;;20.33;10.30;;;0.50;99.90;;;;;;5056981;28;20424;-80
2022/03/23 04:20:21;;;;;;;17.40;9.83;;;0.50;99.90;;;;;;5057767;28;20831;-80
2022/03/23 04:22:46;;;;;;;16.03;9.97;;;0.40;99.90;;;;;;5057646;28;20404;-81
2022/03/23 04:25:14;;;;;;;16.03;9.40;;;1.10;99.90;;;;;;5060852;28;20420;-80
2022/03/23 04:27:48;;;;;;;16.27;8.63;;;0.40;99.90;;;;;;5063590;28;20679;-80
2022/03/23 04:30:17;;;;;;;17.33;8.47;;;0.40;99.90;;;;;;5063283;28;20411;-81
2022/03/23 04:32:44;;;;;;;14.70;7.87;;;;;;;;;;5061735;28;20864;-80
2022/03/23 04:35:10;;;;;;;17.53;8.73;;;;;;;;;;5062401;28;20418;-80
2022/03/23 04:37:36;;;;;;;14.37;9.17;;;;;;;;;;5063943;28;20416;-81
2022/03/23 04:40:03;;;;;;;13.93;8.23;;;0.10;99.90;;;;;;5063078;28;20463;-81
2022/03/23 04:42:29;;;;;;;17.60;9.87;;;;;;;;;;5064472;28;20404;-82
2022/03/23 04:44:55;;;;;;;19.43;9.07;;;0.00;99.90;;;;;;5063364;28;20416;-81
2022/03/23 04:47:20;;;;;;;15.90;8.57;;;0.00;99.90;;;;;;5063477;28;20874;-80
2022/03/23 04:49:46;;;;;;;14.43;8.17;;;;;;;;;;5062107;28;20542;-81
2022/03/23 04:52:13;;;;;;;15.87;9.40;;;;;;;;;;5061300;28;20177;-80
2022/03/23 04:54:39;;;;;;;12.20;7.30;;;-0.20;99.90;;;;;;5061150;28;20189;-80
2022/03/23 04:57:05;;;;;;;17.10;8.30;;;-0.20;99.90;;;;;;5062769;28;20794;-81
2022/03/23 04:59:30;;;;;;;15.57;8.03;;;-0.10;99.90;;;;;;5062014;28;20205;-80
2022/03/23 05:01:56;;;;;;;14.87;7.97;;;;;;;;;;5061359;28;20178;-81
2022/03/23 05:04:22;;;;;;;12.17;8.00;;;-0.10;99.90;;;;;;5062309;28;20252;-80
2022/03/23 05:06:48;;;;;;;13.57;7.40;;;-0.10;99.90;;;;;;5061611;28;20193;-81
2022/03/23 05:09:14;;;;;;;12.93;7.07;;;;;;;;;;5062475;28;20212;-80
2022/03/23 05:11:39;;;;;;;9.60;6.47;;;-0.10;99.90;;;;;;5063390;28;20217;-82
2022/03/23 05:14:05;;;;;;;15.27;7.77;;;-0.20;99.90;;;;;;5063580;28;20898;-82
2022/03/23 05:16:31;;;;;;;12.37;7.67;;;;;;;;;;5063371;28;20193;-81
2022/03/23 05:18:57;;;;;;;11.23;7.37;;;-0.20;99.90;;;;;;5061376;28;20462;-81
2022/03/23 05:21:23;;;;;;;12.13;7.53;;;;;;;;;;5062909;28;20177;-81
2022/03/23 05:23:49;;;;;;;13.27;7.43;;;;;;;;;;5062334;28;20223;-81
2022/03/23 05:26:16;;;;;;;14.87;8.23;;;;;;;;;;5063444;28;20462;-81
2022/03/23 05:28:41;;;;;;;11.70;7.77;;;-0.10;99.90;;;;;;5063362;28;20426;-81
2022/03/23 05:31:07;;;;;;;14.27;7.00;;;;;;;;;;5063168;28;20427;-81
2022/03/23 05:33:34;;;;;;;9.87;6.57;;;;;;;;;;5063673;28;20188;-81
2022/03/23 05:36:00;;;;;;;14.57;6.67;;;;;;;;;;5062504;28;20464;-82
2022/03/23 05:38:26;;;;;;;11.57;6.57;;;;;;;;;;5062531;28;20458;-81
2022/03/23 05:40:52;;;;;;;11.37;6.37;;;;;;;;;;5063617;28;20396;-81
2022/03/23 05:43:19;;;;;;;11.93;7.00;;;;;;;;;;5063502;28;20435;-81
2022/03/23 05:45:45;;;;;;;9.10;5.50;;;;;;;;;;5061769;28;20443;-81
2022/03/23 05:48:11;;;;;;;10.47;6.57;;;;;;;;;;5062986;28;20416;-82
2022/03/23 05:50:37;;;;;;;8.13;6.00;;;;;;;;;;5063548;28;20412;-81
2022/03/23 05:53:04;;;;;;;11.13;6.83;;;;;;;;;;5063270;28;20419;-81
2022/03/23 05:55:30;;;;;;;8.13;5.23;;;;;;;;;;5062721;28;20404;-80
2022/03/23 05:57:56;;;;;;;9.53;5.60;;;;;;;;;;5062948;28;20408;-81
2022/03/23 06:00:22;;;;;;;7.97;4.87;;;;;;;;;;5062740;28;20407;-81
2022/03/23 06:02:49;;;;;;;10.90;5.83;;;;;;;;;;5065623;28;20443;-79
2022/03/23 06:05:15;;;;;;;10.33;6.10;;;;;;;;;;5063243;28;20416;-81
2022/03/23 06:07:41;;;;;;;12.80;6.37;;;;;;;;;;5062477;28;20473;-81
2022/03/23 06:10:07;;;;;;;10.43;6.47;;;0.80;99.90;;;;;;5061032;28;20469;-81
2022/03/23 06:12:34;;;;;;;9.27;5.83;;;;;;;;;;5060174;28;20507;-81
2022/03/23 06:15:01;;;;;;;9.97;5.80;;;;;;;;;;5063822;28;20400;-81
2022/03/23 06:17:27;;;;;;;11.70;7.17;;;;;;;;;;5060620;28;20458;-81
2022/03/23 06:19:53;;;;;;;8.90;5.50;;;;;;;;;;5060868;28;20448;-81
2022/03/23 06:22:19;;;;;;;12.20;6.10;;;;;;;;;;5061651;28;20965;-81
2022/03/23 06:24:45;;;;;;;10.83;5.80;;;;;;;;;;5060917;28;20420;-81
2022/03/23 06:27:12;;;;;;;10.00;6.07;;;;;;;;;;5061989;28;20416;-81
2022/03/23 06:29:38;;;;;;;9.33;5.97;;;;;;;;;;5060423;28;20413;-81
2022/03/23 06:32:04;;;;;;;9.03;6.37;;;1.30;99.90;;;;;;5061344;28;20503;-81
2022/03/23 06:34:30;;;;;;;19.93;7.67;;;;;;;;;;5060140;28;20423;-81
2022/03/23 06:36:56;;;;;;;10.93;6.97;;;;;;;;;;5061970;28;20852;-83
2022/03/23 06:39:22;;;;;;;13.37;6.30;;;;;;;;;;5060550;28;20493;-83
2022/03/23 06:41:48;;;;;;;12.10;6.43;;;;;;;;;;5071012;28;20408;-81
2022/03/23 06:44:15;;;;;;;11.70;5.87;;;;;;;;;;5073154;28;20412;-82
2022/03/23 06:46:42;;;;;;;12.83;6.53;;;;;;;;;;5072539;28;20439;-81
2022/03/23 06:49:08;;;;;;;10.70;5.77;;;;;;;;;;5060367;28;20478;-82
2022/03/23 06:51:34;;;;;;;11.33;5.70;;;2.20;99.90;;;;;;5059425;28;20417;-84
2022/03/23 06:53:59;;;;;;;10.43;4.87;;;2.30;99.90;;;;;;5060230;28;20192;-82
2022/03/23 06:56:25;;;;;;;10.40;6.10;;;;;;;;;;5060689;28;20210;-82
2022/03/23 06:58:51;;;;;;;8.77;6.03;;;2.60;99.90;;;;;;5061075;28;20284;-83
2022/03/23 07:01:17;;;;;;;9.63;5.90;;;;;;;;;;5060405;28;20209;-83
2022/03/23 07:03:43;;;;;;;8.77;5.33;;;;;;;;;;5060422;28;20539;-82
2022/03/23 07:06:09;;;;;;;12.20;5.90;;;3.00;99.90;;;;;;5061757;28;20438;-81
2022/03/23 07:11:18;;;;;;;13.43;5.80;;;3.40;99.90;;;;;;5062564;28;20578;-84
2022/03/23 07:13:44;;;;;;;8.97;5.63;;;3.70;99.90;;;;;;5062694;28;20656;-82
2022/03/23 07:16:10;;;;;;;10.87;6.53;;;4.10;99.90;;;;;;5063015;28;20661;-81
2022/03/23 07:18:35;;;;;;;12.67;5.87;;;4.10;99.90;;;;;;5062449;28;20679;-82
2022/03/23 07:21:04;;;;;;;12.20;6.83;;;4.10;99.90;;;;;;5063767;28;20179;-82
2022/03/23 07:23:30;;;;;;;12.20;6.70;;;4.20;99.90;;;;;;5062734;28;20195;-82
2022/03/23 07:25:56;;;;;;;11.77;6.37;;;4.50;99.90;;;;;;5061460;28;20196;-82
2022/03/23 07:28:21;;;;;;;12.80;6.37;;;4.90;99.90;;;;;;5062217;28;20181;-82
2022/03/23 07:30:47;;;;;;;11.33;6.80;;;5.40;99.90;;;;;;5062635;28;20266;-82
2022/03/23 07:33:13;;;;;;;12.20;6.80;;;6.20;99.90;;;;;;5061110;28;20174;-82
2022/03/23 07:35:38;;;;;;;10.13;6.50;;;6.90;99.00;;;;;;5061008;28;20287;-82
2022/03/23 07:38:04;;;;;;;8.23;5.77;;;7.50;96.40;;;;;;5062092;28;20228;-82
2022/03/23 07:40:30;;;;;;;10.13;6.10;;;7.70;94.60;;;;;;5061103;28;20226;-82
2022/03/23 07:42:55;;;;;;;9.43;5.80;;;8.20;93.10;;;;;;5059781;28;20176;-81
2022/03/23 07:45:21;;;;;;;8.50;5.83;;;8.60;91.50;;;;;;5060378;28;20235;-82
2022/03/23 07:47:47;;;;;;;10.17;7.03;;;9.10;90.40;;;;;;5061690;28;20323;-81
2022/03/23 07:50:12;;;;;;;9.97;6.33;;;9.80;87.00;;;;;;5061378;28;20220;-82
2022/03/23 07:52:38;;;;;;;12.87;5.77;;;10.20;81.20;;;;;;5060599;28;20170;-81
2022/03/23 07:55:04;;;;;;;8.77;6.50;;;10.60;77.20;;;;;;5062186;28;20170;-82
2022/03/23 07:57:30;;;;;;;9.77;6.80;;;10.70;74.50;;;;;;5063259;28;20580;-82
2022/03/23 07:59:55;;;;;;;11.37;6.57;;;10.80;73.00;;;;;;5063131;28;20233;-82
2022/03/23 08:02:24;;;;;;;13.23;6.57;;;10.90;70.10;;;;;;5061570;28;20192;-82
2022/03/23 08:04:50;;;;;;;8.77;5.93;;;10.90;69.40;;;;;;5060448;28;20239;-82
2022/03/23 08:07:16;;;;;;;8.93;5.97;;;11.30;69.10;;;;;;5062309;28;20216;-82
2022/03/23 08:09:42;;;;;;;13.93;7.53;;;12.10;66.60;;;;;;5062160;28;20189;-82
2022/03/23 08:12:09;;;;;;;10.03;6.60;;;12.90;63.10;;;;;;5061986;28;20190;-82
2022/03/23 08:14:35;;;;;;;9.20;6.63;;;13.40;60.00;;;;;;5061881;28;20264;-82
2022/03/23 08:17:00;;;;;;;9.20;6.77;;;13.80;57.50;;;;;;5062317;28;20232;-82
2022/03/23 08:19:26;;;;;;;10.03;7.10;;;13.90;56.80;;;;;;5063587;28;20342;-82
2022/03/23 08:21:52;;;;;;;13.30;7.80;;;14.30;55.40;;;;;;5064243;28;20258;-82
2022/03/23 08:24:18;;;;;;;10.70;7.67;;;14.70;53.70;;;;;;5064488;28;20176;-83
2022/03/23 08:26:45;;;;;;;9.57;7.07;;;15.20;53.60;;;;;;5063252;28;20197;-82
2022/03/23 08:29:10;;;;;;;9.43;7.27;;;15.80;52.80;;;;;;5064922;28;20183;-83
2022/03/23 08:31:36;;;;;;;10.57;7.13;;;16.00;51.50;;;;;;5064129;28;20183;-83
2022/03/23 08:34:04;;;;;;;8.50;7.03;;;16.40;50.90;;;;;;5061405;28;20215;-83
2022/03/23 08:36:31;;;;;;;12.23;7.40;;;16.60;49.80;;;;;;5064247;28;20200;-82
2022/03/23 08:38:57;;;;;;;10.20;7.40;;;16.90;50.20;;;;;;5058108;28;20209;-83
2022/03/23 08:41:23;;;;;;;12.13;7.43;;;17.30;48.20;;;;;;5059236;28;20238;-83
2022/03/23 08:43:48;;;;;;;10.67;8.03;;;17.30;48.20;;;;;;5057586;28;20178;-83
2022/03/23 08:46:14;;;;;;;8.87;7.37;;;17.80;47.50;;;;;;5059202;28;20216;-83
2022/03/23 08:48:40;;;;;;;10.93;7.27;;;17.90;47.10;;;;;;5058733;28;20678;-83
2022/03/23 08:51:06;;;;;;;7.80;6.90;;;18.40;46.40;;;;;;5058936;28;20184;-83
2022/03/23 08:53:32;;;;;;;8.83;7.47;;;18.70;45.60;;;;;;5058203;28;20174;-83
2022/03/23 08:55:59;;;;;;;9.90;7.33;;;18.80;44.90;;;;;;5057457;28;20198;-83
2022/03/23 08:58:26;;;;;;;9.53;7.57;;;18.50;42.90;;;;;;5057206;28;20205;-84
2022/03/23 09:00:51;;;;;;;9.20;7.83;;;18.30;44.90;;;;;;5057352;28;20177;-84
2022/03/23 09:03:17;;;;;;;8.20;7.40;;;18.50;42.90;;;;;;5057065;28;20178;-84
2022/03/23 09:05:42;;;;;;;10.47;7.07;;;18.50;42.30;;;;;;5059141;28;20734;-84
2022/03/23 09:08:09;;;;;;;7.77;6.97;;;18.40;41.90;;;;;;5059589;28;20194;-84
2022/03/23 09:10:34;;;;;;;9.33;6.37;;;18.50;40.50;;;;;;5057688;28;20174;-84
2022/03/23 09:13:00;;;;;;;7.50;6.23;;;18.60;38.00;;;;;;5061374;28;20187;-84
2022/03/23 09:15:27;;;;;;;6.43;5.83;;;18.90;39.40;;;;;;5061596;28;20174;-84
2022/03/23 09:17:58;;;;;;;9.20;6.77;;;19.10;39.20;;;;;;5062231;28;20189;-84
2022/03/23 09:20:28;;;;;;;7.57;6.80;;;18.90;38.00;;;;;;5061522;28;20672;-84
2022/03/23 09:22:55;;;;;;;8.37;6.47;;;18.90;41.10;;;;;;5063283;28;20199;-84
2022/03/23 09:25:22;;;;;;;15.03;6.57;;;19.10;42.40;;;;;;5062294;28;20201;-84
2022/03/23 09:27:48;;;;;;;7.70;6.50;;;19.10;41.40;;;;;;5061553;28;20204;-84
2022/03/23 09:30:15;;;;;;;7.87;6.80;;;19.10;39.00;;;;;;5062905;28;20188;-82
2022/03/23 09:32:42;;;;;;;8.40;7.27;;;18.70;39.80;;;;;;5062048;28;20189;-84
2022/03/23 09:35:08;;;;;;;8.10;6.70;;;18.80;44.00;;;;;;5061703;28;20178;-84
2022/03/23 09:37:49;;;;;;;7.23;6.53;;;18.90;41.20;;;;;;5063568;28;20198;-82
2022/03/23 09:40:24;;;;;;;8.30;6.63;;;19.10;40.50;;;;;;5062991;28;20208;-83
2022/03/23 09:42:51;;;;;;;15.30;6.90;;;19.30;40.70;;;;;;5061547;28;20266;-83
2022/03/23 09:48:03;;;;;;;12.83;6.73;;;19.20;42.00;;;;;;5063531;28;20165;-83
2022/03/23 09:50:31;;;;;;;10.33;6.93;;;19.30;41.30;;;;;;5064392;28;20167;-83
2022/03/23 09:52:58;;;;;;;7.13;6.43;;;19.40;42.00;;;;;;5062971;28;20171;-83
2022/03/23 09:55:24;;;;;;;13.37;6.97;;;19.50;40.80;;;;;;5061606;28;20662;-81
2022/03/23 09:57:54;;;;;;;8.17;6.33;;;19.50;41.40;;;;;;5061723;28;20258;-84
2022/03/23 10:00:20;;;;;;;10.13;6.93;;;19.70;40.30;;;;;;5062499;28;20245;-84
2022/03/23 10:02:58;;;;;;;10.73;7.07;;;19.70;40.70;;;;;;5062538;28;20639;-85
2022/03/23 10:05:55;;;;;;;7.40;6.57;;;19.80;38.90;;;;;;5062568;28;20178;-83
2022/03/23 10:08:48;;;;;;;19.20;11.37;;;19.60;39.10;;;;;;5060061;28;20220;-84
2022/03/23 10:11:51;;;;;;;7.57;6.77;;;19.70;38.90;;;;;;5060794;28;20178;-83
2022/03/23 10:14:48;;;;;;;11.93;7.37;;;19.70;38.10;;;;;;5060833;28;20214;-82
2022/03/23 10:17:42;;;;;;;7.13;6.43;;;19.00;37.40;;;;;;5061125;28;20196;-83
2022/03/23 10:20:11;;;;;;;8.00;7.00;;;18.90;38.10;;;;;;5059923;28;20577;-83
2022/03/23 10:22:48;;;;;;;7.07;6.33;;;19.00;39.70;;;;;;5060370;28;20231;-83
2022/03/23 10:25:15;;;;;;;7.87;6.67;;;19.50;40.30;;;;;;5059369;28;20235;-83
2022/03/23 10:27:40;;;;;;;9.77;6.80;;;19.70;38.10;;;;;;5062159;28;20540;-83
2022/03/23 10:30:07;;;;;;;8.87;6.87;;;19.80;38.20;;;;;;5061476;28;20211;-83
2022/03/23 10:32:37;;;;;;;9.73;6.90;;;19.90;36.70;;;;;;5061209;28;20174;-83
2022/03/23 10:35:09;;;;;;;7.50;6.70;;;19.70;37.60;;;;;;5062242;28;20178;-83
2022/03/23 10:37:35;;;;;;;8.43;7.23;;;19.70;37.90;;;;;;5061650;28;20215;-83
2022/03/23 10:40:07;;;;;;;8.57;7.13;;;19.60;35.60;;;;;;5063413;28;20258;-82
2022/03/23 10:42:35;;;;;;;7.53;6.80;;;19.70;37.30;;;;;;5061542;28;20179;-83
2022/03/23 10:45:03;;;;;;;13.10;6.73;;;19.90;39.50;;;;;;5062320;28;20178;-83
2022/03/23 10:47:33;;;;;;;7.67;6.97;;;20.30;37.70;;;;;;5060331;28;20208;-82
2022/03/23 10:50:15;;;;;;;7.40;6.70;;;20.70;39.00;;;;;;5070861;28;20257;-81
2022/03/23 10:53:05;;;;;;;11.33;6.90;;;21.10;37.70;;;;;;5071723;28;20242;-81
2022/03/23 10:55:35;;;;;;;7.60;6.30;;;21.30;37.50;;;;;;5068224;28;20196;-82
2022/03/23 10:58:01;;;;;;;8.90;7.03;;;21.30;36.50;;;;;;5060808;28;20154;-82
2022/03/23 11:00:37;;;;;;;8.47;6.60;;;21.50;38.80;;;;;;5060328;28;20177;-82
2022/03/23 11:03:04;;;;;;;8.80;7.30;;;21.60;37.30;;;;;;5059723;28;20162;-82
2022/03/23 11:05:32;;;;;;;10.30;7.33;;;21.40;35.20;;;;;;5060620;28;20167;-83
2022/03/23 11:08:09;;;;;;;10.83;7.00;;;20.90;34.40;;;;;;5060832;28;20214;-84
2022/03/23 11:16:17;;;;;;;8.57;6.90;;;20.50;35.90;;;;;;5061483;28;20551;-83
2022/03/23 11:18:45;;;;;;;8.23;6.87;;;20.40;37.60;;;;;;5063053;28;20181;-83
2022/03/23 11:21:12;;;;;;;11.63;7.17;;;20.80;35.90;;;;;;5062911;28;20205;-84
2022/03/23 11:23:38;;;;;;;8.80;6.53;;;21.20;34.50;;;;;;5060112;28;20177;-83
2022/03/23 11:26:10;;;;;;;11.77;6.33;;;21.70;36.50;;;;;;5060076;28;20201;-83
2022/03/23 11:28:41;;;;;;;7.40;6.53;;;21.70;34.80;;;;;;5059504;28;20197;-82
2022/03/23 11:31:11;;;;;;;8.97;6.83;;;21.60;37.10;;;;;;5059063;28;20167;-82
2022/03/23 11:33:38;;;;;;;9.03;6.87;;;21.40;37.20;;;;;;5059823;28;20190;-82
2022/03/23 11:36:08;;;;;;;8.80;6.73;;;21.60;37.60;;;;;;5058154;28;20731;-82
2022/03/23 11:38:34;;;;;;;11.30;6.53;;;21.90;36.80;;;;;;5061286;28;20172;-84
2022/03/23 11:41:00;;;;;;;6.90;6.30;;;21.60;34.90;;;;;;5059072;28;20252;-81
2022/03/23 11:43:29;;;;;;;12.17;6.40;;;21.60;35.10;;;;;;5059503;28;20180;-82
2022/03/23 11:45:58;;;;;;;7.33;6.47;;;21.20;34.60;;;;;;5059122;28;20207;-81
2022/03/23 11:48:46;;;;;;;7.40;6.70;;;21.40;35.30;;;;;;5059434;28;20201;-81
2022/03/23 11:51:56;;;;;;;6.60;5.80;;;21.90;38.20;;;;;;5060911;28;20158;-81
2022/03/23 11:54:27;;;;;;;10.70;6.80;;;22.60;37.20;;;;;;5062925;28;20196;-82
2022/03/23 11:56:58;;;;;;;8.50;6.77;;;22.90;34.90;;;;;;5062763;28;20192;-81
2022/03/23 11:59:24;;;;;;;6.80;6.20;;;23.40;33.50;;;;;;5064057;28;20205;-80
2022/03/23 12:01:50;;;;;;;8.40;5.80;;;23.30;33.40;;;;;;5064866;28;20202;-82
2022/03/23 12:04:27;;;;;;;8.00;6.27;;;23.10;33.20;;;;;;5059174;28;20193;-81
2022/03/23 12:07:04;;;;;;;6.93;6.23;;;22.50;31.40;;;;;;5058964;28;20197;-82
2022/03/23 12:09:48;;;;;;;7.67;6.70;;;22.30;34.80;;;;;;5059396;28;20202;-82
2022/03/23 12:12:28;;;;;;;7.43;5.80;;;22.80;33.50;;;;;;5061364;28;20167;-82
2022/03/23 12:15:21;;;;;;;7.13;6.50;;;23.40;32.60;;;;;;5059777;28;20162;-82
2022/03/23 12:17:55;;;;;;;7.37;6.53;;;23.90;32.10;;;;;;5062266;28;20221;-82
2022/03/23 12:20:41;;;;;;;7.47;6.20;;;23.40;30.90;;;;;;5061740;28;20172;-82
2022/03/23 12:23:16;;;;;;;7.33;6.73;;;23.80;31.40;;;;;;5061676;28;20175;-82
2022/03/23 12:25:57;;;;;;;6.67;6.00;;;24.20;31.70;;;;;;5061422;28;20538;-82
2022/03/23 12:28:44;;;;;;;6.23;5.63;;;24.30;31.20;;;;;;5060821;28;20676;-82
2022/03/23 12:31:15;;;;;;;8.10;5.90;;;24.10;30.00;;;;;;5061472;28;20158;-82
2022/03/23 12:33:57;;;;;;;7.40;6.20;;;23.00;30.50;;;;;;5061943;28;20163;-82
2022/03/23 12:36:56;;;;;;;7.27;6.57;;;23.40;30.10;;;;;;5062961;28;20563;-82
2022/03/23 12:39:24;;;;;;;6.77;6.17;;;23.60;31.10;;;;;;5062835;28;20372;-82
2022/03/23 12:41:50;;;;;;;8.70;5.33;;;24.30;30.30;;;;;;5062875;28;20180;-83
2022/03/23 12:44:16;;;;;;;6.63;6.03;;;24.60;29.80;;;;;;5064355;28;20194;-82
2022/03/23 12:46:45;;;;;;;6.50;5.90;;;24.90;29.90;;;;;;5067572;28;20195;-83
2022/03/23 13:00:25;;;;;;;7.67;5.90;;;26.00;28.10;;;;;;5063697;28;20180;-84
2022/03/23 13:03:09;;;;;;;5.90;5.30;;;26.00;28.40;;;;;;5062236;28;20196;-85
2022/03/23 13:05:58;;;;;;;6.80;5.60;;;24.90;28.50;;;;;;5062218;28;20176;-85
2022/03/23 13:08:27;;;;;;;6.17;5.60;;;25.00;28.60;;;;;;5061825;28;20217;-84
2022/03/23 13:11:01;;;;;;;6.13;5.23;;;25.90;28.70;;;;;;5064957;28;20264;-85
2022/03/23 13:13:28;;;;;;;5.63;5.00;;;25.80;26.90;;;;;;5063865;28;20182;-85
2022/03/23 13:15:54;;;;;;;7.17;5.63;;;25.60;27.10;;;;;;5064294;28;20220;-85
2022/03/23 13:18:30;;;;;;;6.00;5.43;;;25.70;29.90;;;;;;5064871;28;20185;-85
2022/03/23 13:20:58;;;;;;;7.20;5.37;;;26.10;27.90;;;;;;5064750;28;20205;-85
2022/03/23 13:23:26;;;;;;;7.10;5.17;;;26.70;28.80;;;;;;5063374;28;20634;-86
2022/03/23 13:26:02;;;;;;;6.10;5.50;;;27.60;27.10;;;;;;5065745;28;20197;-86
2022/03/23 13:28:29;;;;;;;5.53;5.03;;;27.70;26.60;;;;;;5064288;28;20211;-86
2022/03/23 13:31:02;;;;;;;6.50;4.83;;;27.30;26.30;;;;;;5065414;28;20185;-86
2022/03/23 13:33:41;;;;;;;6.27;5.40;;;27.10;28.00;;;;;;5065253;28;20562;-85
2022/03/23 13:36:09;;;;;;;6.17;5.57;;;26.50;27.60;;;;;;5064592;28;20228;-86
2022/03/23 13:38:45;;;;;;;6.33;5.00;;;26.60;26.10;;;;;;5064716;28;20182;-85
2022/03/23 13:43:59;;;;;;;5.93;5.33;;;26.00;27.30;;;;;;5066789;28;20212;-85
2022/03/23 13:46:27;;;;;;;5.80;5.30;;;26.50;27.80;;;;;;5067566;28;20202;-85
2022/03/23 13:49:10;;;;;;;7.13;4.93;;;26.80;26.20;;;;;;5066538;28;20213;-86
2022/03/23 13:51:39;;;;;;;6.30;5.77;;;27.20;27.20;;;;;;5066256;28;20177;-85
2022/03/23 13:54:10;;;;;;;6.97;5.60;;;26.80;26.60;;;;;;5066438;28;20213;-86